sensor_id;sensor_type;location;lat;lon;timestamp;temperature;humidity
37285;DHT22;23172;53.550;9.964;2023-04-06T00:03:21;8.30;57.00
37285;DHT22;23172;53.550;9.964;2023-04-06T00:08:25;8.30;57.30
37285;DHT22;23172;53.550;9.964;2023-04-06T00:13:27;8.20;57.60
37285;DHT22;23172;53.550;9.964;2023-04-06T00:18:29;8.20;57.70
37285;DHT22;23172;53.550;9.964;2023-04-06T00:23:32;8.20;58.00
37285;DHT22;23172;53.550;9.964;2023-04-06T00:28:34;8.20;58.30
37285;DHT22;23172;53.550;9.964;2023-04-06T00:33:36;8.10;58.40
37285;DHT22;23172;53.550;9.964;2023-04-06T00:38:40;8.10;58.50
37285;DHT22;23172;53.550;9.964;2023-04-06T00:43:41;8.10;58.70
37285;DHT22;23172;53.550;9.964;2023-04-06T00:48:43;8.00;58.80
37285;DHT22;23172;53.550;9.964;2023-04-06T00:53:47;8.00;59.10
37285;DHT22;23172;53.550;9.964;2023-04-06T00:58:49;8.00;59.30
37285;DHT22;23172;53.550;9.964;2023-04-06T01:03:51;8.00;59.50
37285;DHT22;23172;53.550;9.964;2023-04-06T01:08:54;7.90;59.90
37285;DHT22;23172;53.550;9.964;2023-04-06T01:13:57;7.90;60.00
37285;DHT22;23172;53.550;9.964;2023-04-06T01:18:59;7.80;60.70
37285;DHT22;23172;53.550;9.964;2023-04-06T01:24:03;7.80;61.10
37285;DHT22;23172;53.550;9.964;2023-04-06T01:29:05;7.70;61.50
37285;DHT22;23172;53.550;9.964;2023-04-06T01:34:07;7.70;61.80
37285;DHT22;23172;53.550;9.964;2023-04-06T01:39:11;7.60;62.20
37285;DHT22;23172;53.550;9.964;2023-04-06T01:44:16;7.60;62.50
37285;DHT22;23172;53.550;9.964;2023-04-06T01:49:18;7.50;62.70
37285;DHT22;23172;53.550;9.964;2023-04-06T01:54:22;7.50;63.20
37285;DHT22;23172;53.550;9.964;2023-04-06T01:59:24;7.50;63.50
37285;DHT22;23172;53.550;9.964;2023-04-06T02:04:26;7.40;63.50
37285;DHT22;23172;53.550;9.964;2023-04-06T02:09:29;7.40;63.70
37285;DHT22;23172;53.550;9.964;2023-04-06T02:14:32;7.40;64.10
37285;DHT22;23172;53.550;9.964;2023-04-06T02:19:34;7.30;64.90
37285;DHT22;23172;53.550;9.964;2023-04-06T02:24:37;7.30;65.40
37285;DHT22;23172;53.550;9.964;2023-04-06T02:29:40;7.20;65.90
37285;DHT22;23172;53.550;9.964;2023-04-06T02:34:41;7.10;66.70
37285;DHT22;23172;53.550;9.964;2023-04-06T02:39:45;7.00;66.80
37285;DHT22;23172;53.550;9.964;2023-04-06T02:44:47;7.00;67.40
37285;DHT22;23172;53.550;9.964;2023-04-06T02:49:49;6.90;67.20
37285;DHT22;23172;53.550;9.964;2023-04-06T02:54:52;6.90;67.30
37285;DHT22;23172;53.550;9.964;2023-04-06T02:59:54;6.90;67.70
37285;DHT22;23172;53.550;9.964;2023-04-06T03:04:56;6.80;68.00
37285;DHT22;23172;53.550;9.964;2023-04-06T03:09:59;6.80;68.30
37285;DHT22;23172;53.550;9.964;2023-04-06T03:15:01;6.70;68.50
37285;DHT22;23172;53.550;9.964;2023-04-06T03:20:04;6.70;69.20
37285;DHT22;23172;53.550;9.964;2023-04-06T03:25:08;6.60;69.40
37285;DHT22;23172;53.550;9.964;2023-04-06T03:30:11;6.50;69.90
37285;DHT22;23172;53.550;9.964;2023-04-06T03:35:13;6.40;70.40
37285;DHT22;23172;53.550;9.964;2023-04-06T03:40:16;6.30;70.70
37285;DHT22;23172;53.550;9.964;2023-04-06T03:45:18;6.30;71.00
37285;DHT22;23172;53.550;9.964;2023-04-06T03:50:20;6.30;71.50
37285;DHT22;23172;53.550;9.964;2023-04-06T03:55:24;6.20;71.70
37285;DHT22;23172;53.550;9.964;2023-04-06T04:00:26;6.20;72.00
37285;DHT22;23172;53.550;9.964;2023-04-06T04:05:28;6.20;72.00
37285;DHT22;23172;53.550;9.964;2023-04-06T04:10:31;6.20;72.40
37285;DHT22;23172;53.550;9.964;2023-04-06T04:15:33;6.20;72.90
37285;DHT22;23172;53.550;9.964;2023-04-06T04:20:35;6.10;73.20
37285;DHT22;23172;53.550;9.964;2023-04-06T04:25:38;6.10;73.60
37285;DHT22;23172;53.550;9.964;2023-04-06T04:30:40;6.10;73.50
37285;DHT22;23172;53.550;9.964;2023-04-06T04:35:42;6.10;73.60
37285;DHT22;23172;53.550;9.964;2023-04-06T04:40:46;6.10;74.00
37285;DHT22;23172;53.550;9.964;2023-04-06T04:45:48;6.10;74.00
37285;DHT22;23172;53.550;9.964;2023-04-06T04:50:52;6.10;73.90
37285;DHT22;23172;53.550;9.964;2023-04-06T04:55:57;6.10;73.80
37285;DHT22;23172;53.550;9.964;2023-04-06T05:00:59;6.10;73.70
37285;DHT22;23172;53.550;9.964;2023-04-06T05:06:01;6.10;73.60
37285;DHT22;23172;53.550;9.964;2023-04-06T05:11:04;6.10;73.70
37285;DHT22;23172;53.550;9.964;2023-04-06T05:16:06;6.00;73.70
37285;DHT22;23172;53.550;9.964;2023-04-06T05:21:09;6.00;73.90
37285;DHT22;23172;53.550;9.964;2023-04-06T05:26:13;6.00;74.30
37285;DHT22;23172;53.550;9.964;2023-04-06T05:31:15;5.90;74.50
37285;DHT22;23172;53.550;9.964;2023-04-06T05:36:17;5.90;74.80
37285;DHT22;23172;53.550;9.964;2023-04-06T05:41:21;5.90;75.30
37285;DHT22;23172;53.550;9.964;2023-04-06T05:46:23;5.80;75.30
37285;DHT22;23172;53.550;9.964;2023-04-06T05:51:25;5.80;75.50
37285;DHT22;23172;53.550;9.964;2023-04-06T05:56:28;5.90;75.60
37285;DHT22;23172;53.550;9.964;2023-04-06T06:01:30;5.90;75.80
37285;DHT22;23172;53.550;9.964;2023-04-06T06:06:32;6.00;75.80
37285;DHT22;23172;53.550;9.964;2023-04-06T06:11:36;6.10;75.60
37285;DHT22;23172;53.550;9.964;2023-04-06T06:16:38;6.10;75.50
37285;DHT22;23172;53.550;9.964;2023-04-06T06:21:40;6.20;75.40
37285;DHT22;23172;53.550;9.964;2023-04-06T06:26:44;6.30;74.80
37285;DHT22;23172;53.550;9.964;2023-04-06T06:31:46;6.40;74.30
37285;DHT22;23172;53.550;9.964;2023-04-06T06:36:48;6.40;74.00
37285;DHT22;23172;53.550;9.964;2023-04-06T06:41:51;6.50;73.30
37285;DHT22;23172;53.550;9.964;2023-04-06T06:46:55;6.50;72.70
37285;DHT22;23172;53.550;9.964;2023-04-06T06:51:56;6.70;72.30
37285;DHT22;23172;53.550;9.964;2023-04-06T06:57:00;6.70;71.90
37285;DHT22;23172;53.550;9.964;2023-04-06T07:02:02;6.90;71.70
37285;DHT22;23172;53.550;9.964;2023-04-06T07:07:04;7.00;70.80
37285;DHT22;23172;53.550;9.964;2023-04-06T07:12:07;7.20;70.40
37285;DHT22;23172;53.550;9.964;2023-04-06T07:17:09;7.30;70.00
37285;DHT22;23172;53.550;9.964;2023-04-06T07:22:11;7.40;69.00
37285;DHT22;23172;53.550;9.964;2023-04-06T07:27:15;7.60;68.20
37285;DHT22;23172;53.550;9.964;2023-04-06T07:32:17;7.90;67.50
37285;DHT22;23172;53.550;9.964;2023-04-06T07:37:19;8.10;65.80
37285;DHT22;23172;53.550;9.964;2023-04-06T07:42:23;8.40;65.30
37285;DHT22;23172;53.550;9.964;2023-04-06T07:47:25;9.10;66.20
37285;DHT22;23172;53.550;9.964;2023-04-06T07:52:27;9.70;65.50
37285;DHT22;23172;53.550;9.964;2023-04-06T07:57:31;10.10;63.60
37285;DHT22;23172;53.550;9.964;2023-04-06T08:02:33;10.80;63.10
37285;DHT22;23172;53.550;9.964;2023-04-06T08:07:35;11.50;60.80
37285;DHT22;23172;53.550;9.964;2023-04-06T08:12:39;12.00;59.30
37285;DHT22;23172;53.550;9.964;2023-04-06T08:17:41;12.30;58.40
37285;DHT22;23172;53.550;9.964;2023-04-06T08:22:43;12.70;56.60
37285;DHT22;23172;53.550;9.964;2023-04-06T08:27:46;13.10;55.70
37285;DHT22;23172;53.550;9.964;2023-04-06T08:32:48;13.80;54.50
37285;DHT22;23172;53.550;9.964;2023-04-06T08:37:50;14.70;53.30
37285;DHT22;23172;53.550;9.964;2023-04-06T08:42:55;15.70;51.50
37285;DHT22;23172;53.550;9.964;2023-04-06T08:47:57;16.60;50.50
37285;DHT22;23172;53.550;9.964;2023-04-06T08:53:02;17.50;49.90
37285;DHT22;23172;53.550;9.964;2023-04-06T08:58:06;18.60;47.50
37285;DHT22;23172;53.550;9.964;2023-04-06T09:03:12;19.60;45.40
37285;DHT22;23172;53.550;9.964;2023-04-06T09:08:15;20.60;43.00
37285;DHT22;23172;53.550;9.964;2023-04-06T09:13:18;21.10;41.80
37285;DHT22;23172;53.550;9.964;2023-04-06T09:18:28;19.90;37.20
37285;DHT22;23172;53.550;9.964;2023-04-06T09:23:31;18.20;36.70
37285;DHT22;23172;53.550;9.964;2023-04-06T09:28:43;16.70;36.60
37285;DHT22;23172;53.550;9.964;2023-04-06T09:33:45;15.60;37.00
37285;DHT22;23172;53.550;9.964;2023-04-06T09:38:55;14.60;37.70
37285;DHT22;23172;53.550;9.964;2023-04-06T09:44:06;13.90;38.60
37285;DHT22;23172;53.550;9.964;2023-04-06T09:49:09;13.50;39.10
37285;DHT22;23172;53.550;9.964;2023-04-06T09:54:15;13.20;39.50
37285;DHT22;23172;53.550;9.964;2023-04-06T09:59:25;12.90;39.10
37285;DHT22;23172;53.550;9.964;2023-04-06T10:04:36;12.70;39.10
37285;DHT22;23172;53.550;9.964;2023-04-06T10:09:43;12.50;39.10
37285;DHT22;23172;53.550;9.964;2023-04-06T10:14:48;12.40;39.30
37285;DHT22;23172;53.550;9.964;2023-04-06T10:19:55;12.30;39.40
37285;DHT22;23172;53.550;9.964;2023-04-06T10:25:01;12.30;39.50
37285;DHT22;23172;53.550;9.964;2023-04-06T10:30:06;12.30;39.80
37285;DHT22;23172;53.550;9.964;2023-04-06T10:35:09;12.30;39.90
37285;DHT22;23172;53.550;9.964;2023-04-06T10:40:18;12.30;39.90
37285;DHT22;23172;53.550;9.964;2023-04-06T10:45:24;12.40;39.80
37285;DHT22;23172;53.550;9.964;2023-04-06T10:50:29;12.40;39.80
37285;DHT22;23172;53.550;9.964;2023-04-06T10:55:33;12.40;39.90
37285;DHT22;23172;53.550;9.964;2023-04-06T11:00:45;12.40;40.00
37285;DHT22;23172;53.550;9.964;2023-04-06T11:05:49;12.50;39.90
37285;DHT22;23172;53.550;9.964;2023-04-06T11:10:51;12.50;40.00
37285;DHT22;23172;53.550;9.964;2023-04-06T11:15:55;12.50;40.10
37285;DHT22;23172;53.550;9.964;2023-04-06T11:20:57;12.50;40.30
37285;DHT22;23172;53.550;9.964;2023-04-06T11:25:59;12.60;40.30
37285;DHT22;23172;53.550;9.964;2023-04-06T11:31:02;12.70;40.40
37285;DHT22;23172;53.550;9.964;2023-04-06T11:36:05;12.70;40.30
37285;DHT22;23172;53.550;9.964;2023-04-06T11:41:07;12.80;40.30
37285;DHT22;23172;53.550;9.964;2023-04-06T11:46:11;12.90;40.30
37285;DHT22;23172;53.550;9.964;2023-04-06T11:51:22;13.00;40.10
37285;DHT22;23172;53.550;9.964;2023-04-06T11:56:27;13.10;40.00
37285;DHT22;23172;53.550;9.964;2023-04-06T12:01:31;13.20;39.90
37285;DHT22;23172;53.550;9.964;2023-04-06T12:06:33;13.30;40.00
37285;DHT22;23172;53.550;9.964;2023-04-06T12:11:35;13.40;39.70
37285;DHT22;23172;53.550;9.964;2023-04-06T12:16:39;13.40;39.70
37285;DHT22;23172;53.550;9.964;2023-04-06T12:21:41;13.50;39.40
37285;DHT22;23172;53.550;9.964;2023-04-06T12:26:43;13.60;39.50
37285;DHT22;23172;53.550;9.964;2023-04-06T12:31:47;13.70;39.40
37285;DHT22;23172;53.550;9.964;2023-04-06T12:36:49;13.80;39.30
37285;DHT22;23172;53.550;9.964;2023-04-06T12:41:51;13.90;39.30
37285;DHT22;23172;53.550;9.964;2023-04-06T12:46:55;14.00;39.30
37285;DHT22;23172;53.550;9.964;2023-04-06T12:51:57;14.10;39.10
37285;DHT22;23172;53.550;9.964;2023-04-06T12:56:59;14.10;38.90
37285;DHT22;23172;53.550;9.964;2023-04-06T13:02:03;14.20;38.70
37285;DHT22;23172;53.550;9.964;2023-04-06T13:07:06;14.30;38.80
37285;DHT22;23172;53.550;9.964;2023-04-06T13:12:08;14.30;38.70
37285;DHT22;23172;53.550;9.964;2023-04-06T13:17:11;14.30;38.70
37285;DHT22;23172;53.550;9.964;2023-04-06T13:22:13;14.40;38.70
37285;DHT22;23172;53.550;9.964;2023-04-06T13:27:16;14.50;38.50
37285;DHT22;23172;53.550;9.964;2023-04-06T13:32:19;14.70;38.70
37285;DHT22;23172;53.550;9.964;2023-04-06T13:37:21;14.90;38.30
37285;DHT22;23172;53.550;9.964;2023-04-06T13:42:23;15.10;38.30
37285;DHT22;23172;53.550;9.964;2023-04-06T13:47:27;15.50;38.20
37285;DHT22;23172;53.550;9.964;2023-04-06T13:52:29;15.90;37.70
37285;DHT22;23172;53.550;9.964;2023-04-06T13:57:31;16.20;37.10
37285;DHT22;23172;53.550;9.964;2023-04-06T14:02:34;16.30;36.40
37285;DHT22;23172;53.550;9.964;2023-04-06T14:07:36;16.60;36.30
37285;DHT22;23172;53.550;9.964;2023-04-06T14:12:38;16.90;36.20
37285;DHT22;23172;53.550;9.964;2023-04-06T14:17:41;17.40;35.00
37285;DHT22;23172;53.550;9.964;2023-04-06T14:22:43;17.60;34.20
37285;DHT22;23172;53.550;9.964;2023-04-06T14:27:45;17.70;34.40
37285;DHT22;23172;53.550;9.964;2023-04-06T14:32:48;17.90;34.20
37285;DHT22;23172;53.550;9.964;2023-04-06T14:37:50;18.00;33.60
37285;DHT22;23172;53.550;9.964;2023-04-06T14:42:52;18.00;33.30
37285;DHT22;23172;53.550;9.964;2023-04-06T14:47:57;17.90;33.40
37285;DHT22;23172;53.550;9.964;2023-04-06T14:53:30;17.90;33.60
37285;DHT22;23172;53.550;9.964;2023-04-06T14:58:46;17.90;33.70
37285;DHT22;23172;53.550;9.964;2023-04-06T15:03:49;17.60;33.50
37285;DHT22;23172;53.550;9.964;2023-04-06T15:09:10;17.50;33.70
37285;DHT22;23172;53.550;9.964;2023-04-06T15:14:28;17.30;33.70
37285;DHT22;23172;53.550;9.964;2023-04-06T15:19:31;17.10;34.10
37285;DHT22;23172;53.550;9.964;2023-04-06T15:24:33;16.80;34.40
37285;DHT22;23172;53.550;9.964;2023-04-06T15:30:04;16.70;34.70
37285;DHT22;23172;53.550;9.964;2023-04-06T15:35:27;16.50;34.90
37285;DHT22;23172;53.550;9.964;2023-04-06T15:40:30;16.30;35.10
37285;DHT22;23172;53.550;9.964;2023-04-06T15:45:31;16.10;35.30
37285;DHT22;23172;53.550;9.964;2023-04-06T15:50:36;16.00;35.40
37285;DHT22;23172;53.550;9.964;2023-04-06T15:55:38;15.80;35.70
37285;DHT22;23172;53.550;9.964;2023-04-06T16:00:40;15.70;36.00
37285;DHT22;23172;53.550;9.964;2023-04-06T16:05:43;15.50;36.30
37285;DHT22;23172;53.550;9.964;2023-04-06T16:10:46;15.40;36.50
37285;DHT22;23172;53.550;9.964;2023-04-06T16:15:49;15.20;36.80
37285;DHT22;23172;53.550;9.964;2023-04-06T16:20:52;15.10;37.00
37285;DHT22;23172;53.550;9.964;2023-04-06T16:25:56;15.10;37.80
37285;DHT22;23172;53.550;9.964;2023-04-06T16:30:59;15.00;37.30
37285;DHT22;23172;53.550;9.964;2023-04-06T16:36:04;14.90;37.50
37285;DHT22;23172;53.550;9.964;2023-04-06T16:41:07;14.90;37.70
37285;DHT22;23172;53.550;9.964;2023-04-06T16:46:09;14.70;37.90
37285;DHT22;23172;53.550;9.964;2023-04-06T16:51:14;14.70;38.10
37285;DHT22;23172;53.550;9.964;2023-04-06T17:01:49;14.60;38.50
37285;DHT22;23172;53.550;9.964;2023-04-06T17:06:52;14.40;38.70
37285;DHT22;23172;53.550;9.964;2023-04-06T17:11:54;14.30;38.80
37285;DHT22;23172;53.550;9.964;2023-04-06T17:16:56;14.30;39.20
37285;DHT22;23172;53.550;9.964;2023-04-06T17:21:59;14.10;39.50
37285;DHT22;23172;53.550;9.964;2023-04-06T17:27:01;14.00;39.70
37285;DHT22;23172;53.550;9.964;2023-04-06T17:32:03;13.90;39.90
37285;DHT22;23172;53.550;9.964;2023-04-06T17:37:07;13.90;40.10
37285;DHT22;23172;53.550;9.964;2023-04-06T17:42:09;13.80;40.40
37285;DHT22;23172;53.550;9.964;2023-04-06T17:47:11;13.70;40.60
37285;DHT22;23172;53.550;9.964;2023-04-06T17:52:14;13.60;40.90
37285;DHT22;23172;53.550;9.964;2023-04-06T17:57:19;13.50;41.20
37285;DHT22;23172;53.550;9.964;2023-04-06T18:02:21;13.40;41.50
37285;DHT22;23172;53.550;9.964;2023-04-06T18:07:25;13.30;41.70
37285;DHT22;23172;53.550;9.964;2023-04-06T18:12:27;13.20;41.90
37285;DHT22;23172;53.550;9.964;2023-04-06T18:17:29;13.20;42.20
37285;DHT22;23172;53.550;9.964;2023-04-06T18:22:33;13.10;42.50
37285;DHT22;23172;53.550;9.964;2023-04-06T18:27:36;13.00;42.60
37285;DHT22;23172;53.550;9.964;2023-04-06T18:32:38;12.90;42.70
37285;DHT22;23172;53.550;9.964;2023-04-06T18:37:42;12.90;42.90
37285;DHT22;23172;53.550;9.964;2023-04-06T18:42:44;12.80;43.10
37285;DHT22;23172;53.550;9.964;2023-04-06T18:47:46;12.80;43.20
37285;DHT22;23172;53.550;9.964;2023-04-06T18:52:50;12.70;43.30
37285;DHT22;23172;53.550;9.964;2023-04-06T18:57:52;12.70;43.40
37285;DHT22;23172;53.550;9.964;2023-04-06T19:02:54;12.60;43.70
37285;DHT22;23172;53.550;9.964;2023-04-06T19:07:57;12.50;44.00
37285;DHT22;23172;53.550;9.964;2023-04-06T19:12:59;12.40;44.20
37285;DHT22;23172;53.550;9.964;2023-04-06T19:18:01;12.40;44.40
37285;DHT22;23172;53.550;9.964;2023-04-06T19:23:05;12.40;45.10
37285;DHT22;23172;53.550;9.964;2023-04-06T19:28:08;12.20;44.70
37285;DHT22;23172;53.550;9.964;2023-04-06T19:33:10;12.20;44.90
37285;DHT22;23172;53.550;9.964;2023-04-06T19:38:13;12.10;45.00
37285;DHT22;23172;53.550;9.964;2023-04-06T19:43:15;12.10;45.00
37285;DHT22;23172;53.550;9.964;2023-04-06T19:48:18;12.10;45.30
37285;DHT22;23172;53.550;9.964;2023-04-06T19:53:22;12.00;45.50
37285;DHT22;23172;53.550;9.964;2023-04-06T19:58:24;11.90;45.60
37285;DHT22;23172;53.550;9.964;2023-04-06T20:03:26;11.90;45.70
37285;DHT22;23172;53.550;9.964;2023-04-06T20:08:29;11.90;45.80
37285;DHT22;23172;53.550;9.964;2023-04-06T20:13:31;11.80;46.00
37285;DHT22;23172;53.550;9.964;2023-04-06T20:18:33;11.70;46.20
37285;DHT22;23172;53.550;9.964;2023-04-06T20:23:37;11.60;46.50
37285;DHT22;23172;53.550;9.964;2023-04-06T20:28:39;11.60;46.50
37285;DHT22;23172;53.550;9.964;2023-04-06T20:33:41;11.50;46.60
37285;DHT22;23172;53.550;9.964;2023-04-06T20:38:44;11.50;46.60
37285;DHT22;23172;53.550;9.964;2023-04-06T20:43:46;11.50;46.70
37285;DHT22;23172;53.550;9.964;2023-04-06T20:48:48;11.40;46.70
37285;DHT22;23172;53.550;9.964;2023-04-06T20:53:51;11.30;46.80
37285;DHT22;23172;53.550;9.964;2023-04-06T20:58:55;11.30;46.80
37285;DHT22;23172;53.550;9.964;2023-04-06T21:03:58;11.30;47.00
37285;DHT22;23172;53.550;9.964;2023-04-06T21:09:01;11.30;47.10
37285;DHT22;23172;53.550;9.964;2023-04-06T21:14:03;11.20;47.10
37285;DHT22;23172;53.550;9.964;2023-04-06T21:19:05;11.10;47.30
37285;DHT22;23172;53.550;9.964;2023-04-06T21:24:08;11.10;47.40
37285;DHT22;23172;53.550;9.964;2023-04-06T21:29:10;11.10;47.40
37285;DHT22;23172;53.550;9.964;2023-04-06T21:34:13;11.00;47.60
37285;DHT22;23172;53.550;9.964;2023-04-06T21:39:16;11.00;47.70
37285;DHT22;23172;53.550;9.964;2023-04-06T21:44:18;10.90;47.80
37285;DHT22;23172;53.550;9.964;2023-04-06T21:49:20;10.90;47.80
37285;DHT22;23172;53.550;9.964;2023-04-06T21:54:23;10.80;47.80
37285;DHT22;23172;53.550;9.964;2023-04-06T21:59:25;10.80;48.00
37285;DHT22;23172;53.550;9.964;2023-04-06T22:04:28;10.80;48.00
37285;DHT22;23172;53.550;9.964;2023-04-06T22:09:32;10.80;48.00
37285;DHT22;23172;53.550;9.964;2023-04-06T22:14:34;10.70;47.90
37285;DHT22;23172;53.550;9.964;2023-04-06T22:19:36;10.70;48.00
37285;DHT22;23172;53.550;9.964;2023-04-06T22:24:39;10.60;48.00
37285;DHT22;23172;53.550;9.964;2023-04-06T22:29:41;10.60;48.20
37285;DHT22;23172;53.550;9.964;2023-04-06T22:34:43;10.60;48.10
37285;DHT22;23172;53.550;9.964;2023-04-06T22:39:46;10.60;48.20
37285;DHT22;23172;53.550;9.964;2023-04-06T22:44:48;10.50;48.30
37285;DHT22;23172;53.550;9.964;2023-04-06T22:49:50;10.50;48.50
37285;DHT22;23172;53.550;9.964;2023-04-06T22:54:53;10.40;48.40
37285;DHT22;23172;53.550;9.964;2023-04-06T22:59:55;10.40;48.60
37285;DHT22;23172;53.550;9.964;2023-04-06T23:04:57;10.40;48.70
37285;DHT22;23172;53.550;9.964;2023-04-06T23:10:00;10.30;48.70
37285;DHT22;23172;53.550;9.964;2023-04-06T23:15:03;10.30;48.80
37285;DHT22;23172;53.550;9.964;2023-04-06T23:20:06;10.20;48.90
37285;DHT22;23172;53.550;9.964;2023-04-06T23:25:09;10.20;49.10
37285;DHT22;23172;53.550;9.964;2023-04-06T23:30:11;10.10;49.30
37285;DHT22;23172;53.550;9.964;2023-04-06T23:35:13;10.00;49.50
37285;DHT22;23172;53.550;9.964;2023-04-06T23:40:16;10.00;49.70
37285;DHT22;23172;53.550;9.964;2023-04-06T23:45:18;10.00;49.80
37285;DHT22;23172;53.550;9.964;2023-04-06T23:50:20;10.00;49.90
37285;DHT22;23172;53.550;9.964;2023-04-06T23:55:24;9.90;50.10
